Dades meteomassalio
Diari Summary for Febrer 3, 2018 Units:  Both    English   Metric
« Previous Day
Next Day »
Diari Semanal Mensual Anual Personalitzat
  Maxima: Minima: Mijana:
Temperatura: TemperatureC °F /  -17.8 °C 2.2 °F /  -16.6 °C 6.5 °F /  -14.2 °C
Rosada: DewpointC °F /  -17.8 °C -1.2 °F /  -18.4 °C 0.3 °F /  -17.6 °C
Humitat: Humidity % 49 % 65 %
Velocitat del vent: WindSpeedKMH mph /  0 km/h - 29.5 mph /  47.5 km/h
Racha vent: WindSpeedGustKMH mph /  0 km/h - -
Vent:- - NW
Pressio: PressurehPa in /  0 hPa 1014.8 in /  34361.1 hPa -
Pluja: 0.0 in /  0 mm    
Historical Graphs
 
 
Tabular Data for Febrer 3, 2018
Time Temperature Dew Point Pressure Wind Wind Speed Wind Gust Humidity Rainfall Rate (Hourly) solar Conditions
TemperatureC °F /  -17.8 °C DewpointC °F /  -17.8 °C PressurehPa in /  0 hPa Calm     Humidity % HourlyPrecipMM in /  0 mm SolarRadiationWatts/m^2 W/m2 Conditions
00:01 2.8 °F /  -16.2 °C -0.7 °F /  -18.2 °C 1017.2 in /  34442.4 hPa NW 27.8 mph /  44.7 km/h 27.8 mph /  44.7 km/h 78 % 0.0 in /  0 mm 0.0 W/m2 CLR
00:06 2.8 °F /  -16.2 °C -0.7 °F /  -18.2 °C 1017.2 in /  34442.4 hPa NW 22.5 mph /  36.2 km/h 22.5 mph /  36.2 km/h 78 % 0.0 in /  0 mm 0.0 W/m2 CLR
00:11 2.8 °F /  -16.2 °C -0.7 °F /  -18.2 °C 1017.2 in /  34442.4 hPa North 24.1 mph /  38.8 km/h 24.1 mph /  38.8 km/h 78 % 0.0 in /  0 mm 0.0 W/m2 CLR
00:16 2.8 °F /  -16.2 °C -0.7 °F /  -18.2 °C 1017.2 in /  34442.4 hPa NW 25.7 mph /  41.4 km/h 25.7 mph /  41.4 km/h 78 % 0.0 in /  0 mm 0.0 W/m2 CLR
00:21 2.8 °F /  -16.2 °C -0.7 °F /  -18.2 °C 1017.2 in /  34442.4 hPa NW 29.6 mph /  47.6 km/h 29.6 mph /  47.6 km/h 78 % 0.0 in /  0 mm 0.0 W/m2 CLR
00:26 2.8 °F /  -16.2 °C -0.7 °F /  -18.2 °C 1017.2 in /  34442.4 hPa NW 25.9 mph /  41.7 km/h 25.9 mph /  41.7 km/h 78 % 0.0 in /  0 mm 0.0 W/m2 CLR
00:31 2.8 °F /  -16.2 °C -0.7 °F /  -18.2 °C 1017.2 in /  34442.4 hPa NNW 25.9 mph /  41.7 km/h 25.9 mph /  41.7 km/h 78 % 0.0 in /  0 mm 0.0 W/m2 CLR
00:36 2.8 °F /  -16.2 °C -0.7 °F /  -18.2 °C 1017.2 in /  34442.4 hPa NNW 24.1 mph /  38.8 km/h 24.1 mph /  38.8 km/h 78 % 0.0 in /  0 mm 0.0 W/m2 CLR
00:41 2.8 °F /  -16.2 °C -0.5 °F /  -18.1 °C 1017.2 in /  34442.4 hPa NW 22.2 mph /  35.7 km/h 22.2 mph /  35.7 km/h 79 % 0.0 in /  0 mm 0.0 W/m2 CLR
00:46 2.2 °F /  -16.6 °C -1.1 °F /  -18.4 °C 1017.2 in /  34442.4 hPa WNW 25.9 mph /  41.7 km/h 25.9 mph /  41.7 km/h 79 % 0.0 in /  0 mm 0.0 W/m2 CLR
00:51 2.2 °F /  -16.6 °C -1.2 °F /  -18.4 °C 1017.2 in /  34442.4 hPa NNW 22.2 mph /  35.7 km/h 22.2 mph /  35.7 km/h 78 % 0.0 in /  0 mm 0.0 W/m2 CLR
00:56 2.2 °F /  -16.6 °C -1.1 °F /  -18.4 °C 1017.2 in /  34442.4 hPa NNW 32.2 mph /  51.8 km/h 32.2 mph /  51.8 km/h 79 % 0.0 in /  0 mm 0.0 W/m2 CLR
01:01 2.8 °F /  -16.2 °C -0.5 °F /  -18.1 °C 1017.2 in /  34442.4 hPa NW 22.5 mph /  36.2 km/h 22.5 mph /  36.2 km/h 79 % 0.0 in /  0 mm 0.0 W/m2 CLR
01:06 2.2 °F /  -16.6 °C -1.1 °F /  -18.4 °C 1016.8 in /  34428.8 hPa NW 20.9 mph /  33.6 km/h 20.9 mph /  33.6 km/h 79 % 0.0 in /  0 mm 0.0 W/m2 CLR
01:11 2.8 °F /  -16.2 °C -0.7 °F /  -18.2 °C 1016.8 in /  34428.8 hPa North 35.2 mph /  56.6 km/h 35.2 mph /  56.6 km/h 78 % 0.0 in /  0 mm 0.0 W/m2 CLR
01:16 2.8 °F /  -16.2 °C -0.7 °F /  -18.2 °C 1016.8 in /  34428.8 hPa NNW 29.6 mph /  47.6 km/h 29.6 mph /  47.6 km/h 78 % 0.0 in /  0 mm 0.0 W/m2 CLR
01:21 2.8 °F /  -16.2 °C -0.7 °F /  -18.2 °C 1016.8 in /  34428.8 hPa North 41.8 mph /  67.3 km/h 41.8 mph /  67.3 km/h 78 % 0.0 in /  0 mm 0.0 W/m2 CLR
01:26 2.8 °F /  -16.2 °C -0.7 °F /  -18.2 °C 1016.8 in /  34428.8 hPa NNW 35.2 mph /  56.6 km/h 35.2 mph /  56.6 km/h 78 % 0.0 in /  0 mm 0.0 W/m2 CLR
01:31 2.8 °F /  -16.2 °C -0.7 °F /  -18.2 °C 1016.8 in /  34428.8 hPa NNW 33.3 mph /  53.6 km/h 33.3 mph /  53.6 km/h 78 % 0.0 in /  0 mm 0.0 W/m2 CLR
01:36 2.8 °F /  -16.2 °C -0.5 °F /  -18.1 °C 1016.8 in /  34428.8 hPa NW 29.6 mph /  47.6 km/h 29.6 mph /  47.6 km/h 79 % 0.0 in /  0 mm 0.0 W/m2 CLR
01:41 2.8 °F /  -16.2 °C -0.5 °F /  -18.1 °C 1016.8 in /  34428.8 hPa NNW 38.9 mph /  62.6 km/h 38.9 mph /  62.6 km/h 79 % 0.0 in /  0 mm 0.0 W/m2 CLR
01:46 2.8 °F /  -16.2 °C -0.7 °F /  -18.2 °C 1016.8 in /  34428.8 hPa NW 35.2 mph /  56.6 km/h 35.2 mph /  56.6 km/h 78 % 0.0 in /  0 mm 0.0 W/m2 CLR
01:51 2.8 °F /  -16.2 °C -0.7 °F /  -18.2 °C 1016.8 in /  34428.8 hPa NNW 31.5 mph /  50.7 km/h 31.5 mph /  50.7 km/h 78 % 0.0 in /  0 mm 0.0 W/m2 CLR
01:56 2.8 °F /  -16.2 °C -0.7 °F /  -18.2 °C 1017.2 in /  34442.4 hPa NNW 35.2 mph /  56.6 km/h 35.2 mph /  56.6 km/h 78 % 0.0 in /  0 mm 0.0 W/m2 CLR
02:01 2.8 °F /  -16.2 °C -0.7 °F /  -18.2 °C 1016.8 in /  34428.8 hPa NW 37.0 mph /  59.5 km/h 37.0 mph /  59.5 km/h 78 % 0.0 in /  0 mm 0.0 W/m2 CLR
02:06 2.8 °F /  -16.2 °C -0.7 °F /  -18.2 °C 1017.2 in /  34442.4 hPa NNW 40.7 mph /  65.5 km/h 40.7 mph /  65.5 km/h 78 % 0.0 in /  0 mm 0.0 W/m2 CLR
02:11 2.8 °F /  -16.2 °C -0.7 °F /  -18.2 °C 1016.8 in /  34428.8 hPa NW 46.3 mph /  74.5 km/h 46.3 mph /  74.5 km/h 78 % 0.0 in /  0 mm 0.0 W/m2 CLR
02:16 2.8 °F /  -16.2 °C -0.8 °F /  -18.2 °C 1017.2 in /  34442.4 hPa North 35.4 mph /  57 km/h 35.4 mph /  57 km/h 77 % 0.0 in /  0 mm 0.0 W/m2 CLR
02:21 3.3 °F /  -15.9 °C -0.3 °F /  -17.9 °C 1017.2 in /  34442.4 hPa North 33.3 mph /  53.6 km/h 33.3 mph /  53.6 km/h 77 % 0.0 in /  0 mm 0.0 W/m2 CLR
02:26 2.8 °F /  -16.2 °C -1.1 °F /  -18.4 °C 1017.2 in /  34442.4 hPa NNW 42.6 mph /  68.6 km/h 42.6 mph /  68.6 km/h 76 % 0.0 in /  0 mm 0.0 W/m2 CLR
02:31 3.3 °F /  -15.9 °C -0.7 °F /  -18.2 °C 1017.2 in /  34442.4 hPa NW 35.2 mph /  56.6 km/h 35.2 mph /  56.6 km/h 75 % 0.0 in /  0 mm 0.0 W/m2 CLR
02:36 3.3 °F /  -15.9 °C -0.7 °F /  -18.2 °C 1017.5 in /  34452.6 hPa NNW 38.9 mph /  62.6 km/h 38.9 mph /  62.6 km/h 75 % 0.0 in /  0 mm 0.0 W/m2 CLR
02:41 3.3 °F /  -15.9 °C -0.7 °F /  -18.2 °C 1017.5 in /  34452.6 hPa NNW 30.6 mph /  49.2 km/h 30.6 mph /  49.2 km/h 75 % 0.0 in /  0 mm 0.0 W/m2 CLR
02:47 3.3 °F /  -15.9 °C -0.7 °F /  -18.2 °C 1017.5 in /  34452.6 hPa NNW 25.9 mph /  41.7 km/h 25.9 mph /  41.7 km/h 75 % 0.0 in /  0 mm 0.0 W/m2 CLR
02:52 3.3 °F /  -15.9 °C -0.7 °F /  -18.2 °C 1017.5 in /  34452.6 hPa NW 25.9 mph /  41.7 km/h 25.9 mph /  41.7 km/h 75 % 0.0 in /  0 mm 0.0 W/m2 CLR
02:57 3.3 °F /  -15.9 °C -0.5 °F /  -18.1 °C 1017.5 in /  34452.6 hPa NW 25.9 mph /  41.7 km/h 25.9 mph /  41.7 km/h 76 % 0.0 in /  0 mm 0.0 W/m2 CLR
03:02 3.3 °F /  -15.9 °C -0.5 °F /  -18.1 °C 1017.5 in /  34452.6 hPa NW 24.1 mph /  38.8 km/h 24.1 mph /  38.8 km/h 76 % 0.0 in /  0 mm 0.0 W/m2 CLR
03:07 3.3 °F /  -15.9 °C -0.5 °F /  -18.1 °C 1017.5 in /  34452.6 hPa NW 29.6 mph /  47.6 km/h 29.6 mph /  47.6 km/h 76 % 0.0 in /  0 mm 0.0 W/m2 CLR
03:12 3.3 °F /  -15.9 °C -0.3 °F /  -17.9 °C 1017.5 in /  34452.6 hPa NNW 40.7 mph /  65.5 km/h 40.7 mph /  65.5 km/h 77 % 0.0 in /  0 mm 0.0 W/m2 CLR
03:17 3.3 °F /  -15.9 °C -0.3 °F /  -17.9 °C 1017.5 in /  34452.6 hPa NNW 33.3 mph /  53.6 km/h 33.3 mph /  53.6 km/h 77 % 0.0 in /  0 mm 0.0 W/m2 CLR
03:22 3.3 °F /  -15.9 °C -0.2 °F /  -17.9 °C 1017.5 in /  34452.6 hPa NNW 42.6 mph /  68.6 km/h 42.6 mph /  68.6 km/h 78 % 0.0 in /  0 mm 0.0 W/m2 CLR
03:27 3.3 °F /  -15.9 °C -0.2 °F /  -17.9 °C 1017.2 in /  34442.4 hPa North 35.2 mph /  56.6 km/h 35.2 mph /  56.6 km/h 78 % 0.0 in /  0 mm 0.0 W/m2 CLR
03:32 3.3 °F /  -15.9 °C -0.2 °F /  -17.9 °C 1017.2 in /  34442.4 hPa NW 37.0 mph /  59.5 km/h 37.0 mph /  59.5 km/h 78 % 0.0 in /  0 mm 0.0 W/m2 CLR
03:37 3.3 °F /  -15.9 °C -0.3 °F /  -17.9 °C 1017.2 in /  34442.4 hPa NNW 38.9 mph /  62.6 km/h 38.9 mph /  62.6 km/h 77 % 0.0 in /  0 mm 0.0 W/m2 CLR
03:42 3.3 °F /  -15.9 °C -0.3 °F /  -17.9 °C 1017.2 in /  34442.4 hPa NNW 42.6 mph /  68.6 km/h 42.6 mph /  68.6 km/h 77 % 0.0 in /  0 mm 0.0 W/m2 CLR
03:47 3.3 °F /  -15.9 °C -0.3 °F /  -17.9 °C 1017.5 in /  34452.6 hPa NNW 35.2 mph /  56.6 km/h 35.2 mph /  56.6 km/h 77 % 0.0 in /  0 mm 0.0 W/m2 CLR
03:52 3.3 °F /  -15.9 °C -0.3 °F /  -17.9 °C 1017.5 in /  34452.6 hPa NNW 30.6 mph /  49.2 km/h 30.6 mph /  49.2 km/h 77 % 0.0 in /  0 mm 0.0 W/m2 CLR
03:57 3.3 °F /  -15.9 °C -0.5 °F /  -18.1 °C 1017.5 in /  34452.6 hPa NNW 37.0 mph /  59.5 km/h 37.0 mph /  59.5 km/h 76 % 0.0 in /  0 mm 0.0 W/m2 CLR
04:02 3.3 °F /  -15.9 °C -0.5 °F /  -18.1 °C 1017.2 in /  34442.4 hPa NNW 25.9 mph /  41.7 km/h 25.9 mph /  41.7 km/h 76 % 0.0 in /  0 mm 0.0 W/m2 CLR
04:07 3.3 °F /  -15.9 °C -0.7 °F /  -18.2 °C 1017.2 in /  34442.4 hPa NNW 37.0 mph /  59.5 km/h 37.0 mph /  59.5 km/h 75 % 0.0 in /  0 mm 0.0 W/m2 CLR
04:12 3.3 °F /  -15.9 °C -0.7 °F /  -18.2 °C 1017.2 in /  34442.4 hPa NNW 31.5 mph /  50.7 km/h 31.5 mph /  50.7 km/h 75 % 0.0 in /  0 mm 0.0 W/m2 CLR
04:17 3.3 °F /  -15.9 °C -0.7 °F /  -18.2 °C 1017.2 in /  34442.4 hPa NNW 35.4 mph /  57 km/h 35.4 mph /  57 km/h 75 % 0.0 in /  0 mm 0.0 W/m2 CLR
04:22 3.3 °F /  -15.9 °C -0.5 °F /  -18.1 °C 1017.2 in /  34442.4 hPa NW 38.9 mph /  62.6 km/h 38.9 mph /  62.6 km/h 76 % 0.0 in /  0 mm 0.0 W/m2 CLR
04:27 3.3 °F /  -15.9 °C -0.7 °F /  -18.2 °C 1017.2 in /  34442.4 hPa NNW 40.7 mph /  65.5 km/h 40.7 mph /  65.5 km/h 75 % 0.0 in /  0 mm 0.0 W/m2 CLR
04:32 3.3 °F /  -15.9 °C -0.7 °F /  -18.2 °C 1017.2 in /  34442.4 hPa North 25.9 mph /  41.7 km/h 25.9 mph /  41.7 km/h 75 % 0.0 in /  0 mm 0.0 W/m2 CLR
04:37 3.3 °F /  -15.9 °C -0.5 °F /  -18.1 °C 1017.2 in /  34442.4 hPa NW 37.0 mph /  59.5 km/h 37.0 mph /  59.5 km/h 76 % 0.0 in /  0 mm 0.0 W/m2 CLR
04:42 3.3 °F /  -15.9 °C -0.7 °F /  -18.2 °C 1017.2 in /  34442.4 hPa NW 32.2 mph /  51.8 km/h 32.2 mph /  51.8 km/h 75 % 0.0 in /  0 mm 0.0 W/m2 CLR
04:47 3.3 °F /  -15.9 °C -0.7 °F /  -18.2 °C 1017.5 in /  34452.6 hPa NW 31.5 mph /  50.7 km/h 31.5 mph /  50.7 km/h 75 % 0.0 in /  0 mm 0.0 W/m2 CLR
04:52 3.3 °F /  -15.9 °C -0.7 °F /  -18.2 °C 1017.5 in /  34452.6 hPa North 40.7 mph /  65.5 km/h 40.7 mph /  65.5 km/h 75 % 0.0 in /  0 mm 0.0 W/m2 CLR
04:57 3.3 °F /  -15.9 °C -0.9 °F /  -18.3 °C 1017.2 in /  34442.4 hPa NW 27.8 mph /  44.7 km/h 27.8 mph /  44.7 km/h 74 % 0.0 in /  0 mm 0.0 W/m2 CLR
05:02 3.3 °F /  -15.9 °C -0.9 °F /  -18.3 °C 1017.2 in /  34442.4 hPa NNW 35.4 mph /  57 km/h 35.4 mph /  57 km/h 74 % 0.0 in /  0 mm 0.0 W/m2 CLR
05:07 3.3 °F /  -15.9 °C -0.7 °F /  -18.2 °C 1017.2 in /  34442.4 hPa NNW 37.0 mph /  59.5 km/h 37.0 mph /  59.5 km/h 75 % 0.0 in /  0 mm 0.0 W/m2 CLR
05:12 3.3 °F /  -15.9 °C -0.7 °F /  -18.2 °C 1017.5 in /  34452.6 hPa NNW 42.6 mph /  68.6 km/h 42.6 mph /  68.6 km/h 75 % 0.0 in /  0 mm 0.0 W/m2 CLR
05:17 3.3 °F /  -15.9 °C -0.7 °F /  -18.2 °C 1017.5 in /  34452.6 hPa NNW 33.3 mph /  53.6 km/h 33.3 mph /  53.6 km/h 75 % 0.0 in /  0 mm 0.0 W/m2 CLR
05:22 3.3 °F /  -15.9 °C -0.5 °F /  -18.1 °C 1017.5 in /  34452.6 hPa NNW 38.6 mph /  62.1 km/h 38.6 mph /  62.1 km/h 76 % 0.0 in /  0 mm 0.0 W/m2 CLR
05:27 3.3 °F /  -15.9 °C -0.3 °F /  -17.9 °C 1017.5 in /  34452.6 hPa NNW 29.6 mph /  47.6 km/h 29.6 mph /  47.6 km/h 77 % 0.0 in /  0 mm 0.0 W/m2 CLR
05:32 3.3 °F /  -15.9 °C -0.3 °F /  -17.9 °C 1017.5 in /  34452.6 hPa NW 42.6 mph /  68.6 km/h 42.6 mph /  68.6 km/h 77 % 0.0 in /  0 mm 0.0 W/m2 CLR
05:37 3.3 °F /  -15.9 °C -0.3 °F /  -17.9 °C 1017.5 in /  34452.6 hPa North 40.7 mph /  65.5 km/h 40.7 mph /  65.5 km/h 77 % 0.0 in /  0 mm 0.0 W/m2 CLR
05:42 3.3 °F /  -15.9 °C -0.5 °F /  -18.1 °C 1017.5 in /  34452.6 hPa NNW 37.0 mph /  59.5 km/h 37.0 mph /  59.5 km/h 76 % 0.0 in /  0 mm 0.0 W/m2 CLR
05:47 3.3 °F /  -15.9 °C -0.5 °F /  -18.1 °C 1017.2 in /  34442.4 hPa NNW 37.0 mph /  59.5 km/h 37.0 mph /  59.5 km/h 76 % 0.0 in /  0 mm 0.0 W/m2 CLR
05:52 3.3 °F /  -15.9 °C -0.7 °F /  -18.2 °C 1017.5 in /  34452.6 hPa NNW 42.6 mph /  68.6 km/h 42.6 mph /  68.6 km/h 75 % 0.0 in /  0 mm 0.0 W/m2 CLR
05:57 3.3 °F /  -15.9 °C -0.7 °F /  -18.2 °C 1017.5 in /  34452.6 hPa NNW 37.0 mph /  59.5 km/h 37.0 mph /  59.5 km/h 75 % 0.0 in /  0 mm 0.0 W/m2 CLR
06:02 3.3 °F /  -15.9 °C -0.7 °F /  -18.2 °C 1017.5 in /  34452.6 hPa NW 35.2 mph /  56.6 km/h 35.2 mph /  56.6 km/h 75 % 0.0 in /  0 mm 0.0 W/m2 CLR
06:07 3.3 °F /  -15.9 °C -0.7 °F /  -18.2 °C 1017.5 in /  34452.6 hPa North 37.0 mph /  59.5 km/h 37.0 mph /  59.5 km/h 75 % 0.0 in /  0 mm 0.0 W/m2 CLR
06:12 3.3 °F /  -15.9 °C -0.7 °F /  -18.2 °C 1017.8 in /  34462.7 hPa NW 29.6 mph /  47.6 km/h 29.6 mph /  47.6 km/h 75 % 0.0 in /  0 mm 0.0 W/m2 CLR
06:17 3.3 °F /  -15.9 °C -0.7 °F /  -18.2 °C 1017.8 in /  34462.7 hPa NW 25.9 mph /  41.7 km/h 25.9 mph /  41.7 km/h 75 % 0.0 in /  0 mm 0.0 W/m2 CLR
06:22 3.3 °F /  -15.9 °C -0.7 °F /  -18.2 °C 1017.8 in /  34462.7 hPa NNW 33.8 mph /  54.4 km/h 33.8 mph /  54.4 km/h 75 % 0.0 in /  0 mm 0.0 W/m2 CLR
06:27 3.3 °F /  -15.9 °C -0.7 °F /  -18.2 °C 1017.8 in /  34462.7 hPa NNW 25.7 mph /  41.4 km/h 25.7 mph /  41.4 km/h 75 % 0.0 in /  0 mm 0.0 W/m2 CLR
06:32 3.3 °F /  -15.9 °C -0.5 °F /  -18.1 °C 1017.8 in /  34462.7 hPa NW 29.6 mph /  47.6 km/h 29.6 mph /  47.6 km/h 76 % 0.0 in /  0 mm 0.0 W/m2 CLR
06:37 3.3 °F /  -15.9 °C -0.5 °F /  -18.1 °C 1017.8 in /  34462.7 hPa North 25.7 mph /  41.4 km/h 25.7 mph /  41.4 km/h 76 % 0.0 in /  0 mm 0.0 W/m2 CLR
06:42 3.3 °F /  -15.9 °C -0.5 °F /  -18.1 °C 1017.8 in /  34462.7 hPa NW 31.5 mph /  50.7 km/h 31.5 mph /  50.7 km/h 76 % 0.0 in /  0 mm 0.0 W/m2 CLR
06:47 3.3 °F /  -15.9 °C -0.7 °F /  -18.2 °C 1017.8 in /  34462.7 hPa NW 31.5 mph /  50.7 km/h 31.5 mph /  50.7 km/h 75 % 0.0 in /  0 mm 0.0 W/m2 CLR
06:52 3.3 °F /  -15.9 °C -0.7 °F /  -18.2 °C 1017.8 in /  34462.7 hPa NNW 31.5 mph /  50.7 km/h 31.5 mph /  50.7 km/h 75 % 0.0 in /  0 mm 0.0 W/m2 CLR
06:57 3.3 °F /  -15.9 °C -0.7 °F /  -18.2 °C 1017.8 in /  34462.7 hPa NNW 33.3 mph /  53.6 km/h 33.3 mph /  53.6 km/h 75 % 0.0 in /  0 mm 0.0 W/m2 CLR
07:02 3.3 °F /  -15.9 °C -0.7 °F /  -18.2 °C 1017.8 in /  34462.7 hPa NW 30.6 mph /  49.2 km/h 30.6 mph /  49.2 km/h 75 % 0.0 in /  0 mm 0.0 W/m2 CLR
07:07 3.3 °F /  -15.9 °C -0.7 °F /  -18.2 °C 1017.8 in /  34462.7 hPa NNW 31.5 mph /  50.7 km/h 31.5 mph /  50.7 km/h 75 % 0.0 in /  0 mm 0.0 W/m2 CLR
07:12 3.3 °F /  -15.9 °C -0.7 °F /  -18.2 °C 1018.2 in /  34476.3 hPa NNW 32.2 mph /  51.8 km/h 32.2 mph /  51.8 km/h 75 % 0.0 in /  0 mm 0.0 W/m2 CLR
07:17 3.3 °F /  -15.9 °C -0.7 °F /  -18.2 °C 1017.8 in /  34462.7 hPa NNW 33.3 mph /  53.6 km/h 33.3 mph /  53.6 km/h 75 % 0.0 in /  0 mm 0.0 W/m2 CLR
07:22 3.3 °F /  -15.9 °C -0.7 °F /  -18.2 °C 1017.8 in /  34462.7 hPa NNW 37.0 mph /  59.5 km/h 37.0 mph /  59.5 km/h 75 % 0.0 in /  0 mm 0.0 W/m2 CLR
07:27 3.3 °F /  -15.9 °C -0.9 °F /  -18.3 °C 1017.8 in /  34462.7 hPa North 43.4 mph /  69.8 km/h 43.4 mph /  69.8 km/h 74 % 0.0 in /  0 mm 0.0 W/m2 CLR
07:32 3.9 °F /  -15.6 °C -0.3 °F /  -17.9 °C 1017.8 in /  34462.7 hPa NNW 40.7 mph /  65.5 km/h 40.7 mph /  65.5 km/h 74 % 0.0 in /  0 mm 0.0 W/m2 CLR
07:37 3.9 °F /  -15.6 °C -0.3 °F /  -17.9 °C 1018.2 in /  34476.3 hPa NW 29.6 mph /  47.6 km/h 29.6 mph /  47.6 km/h 74 % 0.0 in /  0 mm 0.0 W/m2 CLR
07:42 3.9 °F /  -15.6 °C -0.2 °F /  -17.9 °C 1018.2 in /  34476.3 hPa NW 35.2 mph /  56.6 km/h 35.2 mph /  56.6 km/h 75 % 0.0 in /  0 mm 0.0 W/m2 CLR
07:47 3.9 °F /  -15.6 °C -0.3 °F /  -17.9 °C 1018.2 in /  34476.3 hPa NW 44.4 mph /  71.5 km/h 44.4 mph /  71.5 km/h 74 % 0.0 in /  0 mm 0.0 W/m2 CLR
07:52 3.9 °F /  -15.6 °C -0.3 °F /  -17.9 °C 1018.5 in /  34486.4 hPa NNW 37.0 mph /  59.5 km/h 37.0 mph /  59.5 km/h 74 % 0.0 in /  0 mm 0.0 W/m2 CLR
07:57 3.9 °F /  -15.6 °C -0.3 °F /  -17.9 °C 1018.5 in /  34486.4 hPa NW 31.5 mph /  50.7 km/h 31.5 mph /  50.7 km/h 74 % 0.0 in /  0 mm 0.0 W/m2 CLR
08:02 3.9 °F /  -15.6 °C -0.3 °F /  -17.9 °C 1018.5 in /  34486.4 hPa NW 31.5 mph /  50.7 km/h 31.5 mph /  50.7 km/h 74 % 0.0 in /  0 mm 0.0 W/m2 OVC
08:07 3.9 °F /  -15.6 °C -0.5 °F /  -18.1 °C 1018.5 in /  34486.4 hPa NW 31.5 mph /  50.7 km/h 31.5 mph /  50.7 km/h 73 % 0.0 in /  0 mm 5.0 W/m2 OVC
08:12 3.9 °F /  -15.6 °C -0.5 °F /  -18.1 °C 1018.5 in /  34486.4 hPa NW 25.9 mph /  41.7 km/h 25.9 mph /  41.7 km/h 73 % 0.0 in /  0 mm 7.0 W/m2 OVC
08:17 3.9 °F /  -15.6 °C -0.5 °F /  -18.1 °C 1018.5 in /  34486.4 hPa NW 25.9 mph /  41.7 km/h 25.9 mph /  41.7 km/h 73 % 0.0 in /  0 mm 11.0 W/m2 BKN
08:22 3.9 °F /  -15.6 °C -0.3 °F /  -17.9 °C 1018.5 in /  34486.4 hPa WNW 25.9 mph /  41.7 km/h 25.9 mph /  41.7 km/h 74 % 0.0 in /  0 mm 12.0 W/m2 BKN
08:27 3.9 °F /  -15.6 °C -0.5 °F /  -18.1 °C 1018.5 in /  34486.4 hPa NNW 20.4 mph /  32.8 km/h 20.4 mph /  32.8 km/h 73 % 0.0 in /  0 mm 19.0 W/m2 BKN
08:33 3.9 °F /  -15.6 °C -0.5 °F /  -18.1 °C 1018.5 in /  34486.4 hPa NNW 20.4 mph /  32.8 km/h 20.4 mph /  32.8 km/h 73 % 0.0 in /  0 mm 26.0 W/m2 BKN
08:38 3.9 °F /  -15.6 °C -0.7 °F /  -18.2 °C 1018.5 in /  34486.4 hPa NNW 25.9 mph /  41.7 km/h 25.9 mph /  41.7 km/h 72 % 0.0 in /  0 mm 30.0 W/m2 BKN
08:43 3.9 °F /  -15.6 °C -0.9 °F /  -18.3 °C 1018.5 in /  34486.4 hPa North 20.9 mph /  33.6 km/h 20.9 mph /  33.6 km/h 71 % 0.0 in /  0 mm 35.0 W/m2 BKN
08:48 3.9 °F /  -15.6 °C -0.9 °F /  -18.3 °C 1018.5 in /  34486.4 hPa NW 33.3 mph /  53.6 km/h 33.3 mph /  53.6 km/h 71 % 0.0 in /  0 mm 28.0 W/m2 BKN
08:53 4.4 °F /  -15.3 °C -0.3 °F /  -17.9 °C 1018.5 in /  34486.4 hPa NNW 16.1 mph /  25.9 km/h 16.1 mph /  25.9 km/h 71 % 0.0 in /  0 mm 33.0 W/m2 BKN
08:58 4.4 °F /  -15.3 °C -0.6 °F /  -18.1 °C 1018.5 in /  34486.4 hPa NNW 19.3 mph /  31.1 km/h 19.3 mph /  31.1 km/h 70 % 0.0 in /  0 mm 30.0 W/m2 BKN
09:03 4.4 °F /  -15.3 °C -0.8 °F /  -18.2 °C 1018.8 in /  34496.6 hPa NW 24.1 mph /  38.8 km/h 24.1 mph /  38.8 km/h 69 % 0.0 in /  0 mm 28.0 W/m2 BKN
09:08 4.4 °F /  -15.3 °C -0.8 °F /  -18.2 °C 1018.8 in /  34496.6 hPa NNW 19.3 mph /  31.1 km/h 19.3 mph /  31.1 km/h 69 % 0.0 in /  0 mm 33.0 W/m2 BKN
09:13 4.4 °F /  -15.3 °C -0.8 °F /  -18.2 °C 1018.8 in /  34496.6 hPa NW 16.7 mph /  26.9 km/h 16.9 mph /  27.2 km/h 69 % 0.0 in /  0 mm 35.0 W/m2 BKN
09:18 4.4 °F /  -15.3 °C -0.8 °F /  -18.2 °C 1018.8 in /  34496.6 hPa WNW 22.2 mph /  35.7 km/h 22.2 mph /  35.7 km/h 69 % 0.0 in /  0 mm 35.0 W/m2 BKN
09:23 4.4 °F /  -15.3 °C -0.9 °F /  -18.3 °C 1018.8 in /  34496.6 hPa NW 27.8 mph /  44.7 km/h 27.8 mph /  44.7 km/h 68 % 0.0 in /  0 mm 33.0 W/m2 BKN
09:28 4.4 °F /  -15.3 °C -0.9 °F /  -18.3 °C 1018.8 in /  34496.6 hPa NW 25.9 mph /  41.7 km/h 25.9 mph /  41.7 km/h 68 % 0.0 in /  0 mm 46.0 W/m2 BKN
09:33 4.4 °F /  -15.3 °C -0.8 °F /  -18.2 °C 1018.8 in /  34496.6 hPa WNW 18.5 mph /  29.8 km/h 18.5 mph /  29.8 km/h 69 % 0.0 in /  0 mm 49.0 W/m2 BKN
09:38 4.4 °F /  -15.3 °C -0.8 °F /  -18.2 °C 1018.8 in /  34496.6 hPa NW 18.5 mph /  29.8 km/h 18.5 mph /  29.8 km/h 69 % 0.0 in /  0 mm 69.0 W/m2 SCT
09:43 4.4 °F /  -15.3 °C -0.8 °F /  -18.2 °C 1019.2 in /  34510.1 hPa NW 18.5 mph /  29.8 km/h 18.5 mph /  29.8 km/h 69 % 0.0 in /  0 mm 58.0 W/m2 SCT
09:48 4.4 °F /  -15.3 °C -0.8 °F /  -18.2 °C 1019.2 in /  34510.1 hPa NW 16.7 mph /  26.9 km/h 16.7 mph /  26.9 km/h 69 % 0.0 in /  0 mm 120.0 W/m2 FEW
09:53 5.0 °F /  -15 °C -0.4 °F /  -18 °C 1019.2 in /  34510.1 hPa NNW 22.2 mph /  35.7 km/h 22.2 mph /  35.7 km/h 68 % 0.0 in /  0 mm 105.0 W/m2 CLR
09:58 5.0 °F /  -15 °C -0.4 °F /  -18 °C 1018.8 in /  34496.6 hPa NW 27.8 mph /  44.7 km/h 27.8 mph /  44.7 km/h 68 % 0.0 in /  0 mm 132.0 W/m2 CLR
10:03 5.6 °F /  -14.7 °C 0.1 °F /  -17.7 °C 1018.8 in /  34496.6 hPa NW 31.5 mph /  50.7 km/h 31.5 mph /  50.7 km/h 68 % 0.0 in /  0 mm 355.0 W/m2 CLR
10:08 6.1 °F /  -14.4 °C 0.4 °F /  -17.6 °C 1018.8 in /  34496.6 hPa NNW 27.8 mph /  44.7 km/h 27.8 mph /  44.7 km/h 67 % 0.0 in /  0 mm 128.0 W/m2 CLR
10:13 6.1 °F /  -14.4 °C 0.4 °F /  -17.6 °C 1018.8 in /  34496.6 hPa NNW 37.0 mph /  59.5 km/h 37.0 mph /  59.5 km/h 67 % 0.0 in /  0 mm 148.0 W/m2 CLR
10:18 6.1 °F /  -14.4 °C 0.4 °F /  -17.6 °C 1018.8 in /  34496.6 hPa NW 27.8 mph /  44.7 km/h 27.8 mph /  44.7 km/h 67 % 0.0 in /  0 mm 69.0 W/m2 CLR
10:23 6.1 °F /  -14.4 °C 0.7 °F /  -17.4 °C 1018.8 in /  34496.6 hPa North 37.0 mph /  59.5 km/h 37.0 mph /  59.5 km/h 68 % 0.0 in /  0 mm 336.0 W/m2 FEW
10:28 6.1 °F /  -14.4 °C 0.4 °F /  -17.6 °C 1018.8 in /  34496.6 hPa North 37.0 mph /  59.5 km/h 37.0 mph /  59.5 km/h 67 % 0.0 in /  0 mm 338.0 W/m2 CLR
10:33 6.7 °F /  -14.1 °C 0.8 °F /  -17.3 °C 1018.5 in /  34486.4 hPa North 38.9 mph /  62.6 km/h 38.9 mph /  62.6 km/h 66 % 0.0 in /  0 mm 346.0 W/m2 CLR
10:38 7.2 °F /  -13.8 °C 1.3 °F /  -17.1 °C 1018.5 in /  34486.4 hPa North 42.6 mph /  68.6 km/h 42.6 mph /  68.6 km/h 66 % 0.0 in /  0 mm 359.0 W/m2 CLR
10:43 7.2 °F /  -13.8 °C 1.1 °F /  -17.2 °C 1018.5 in /  34486.4 hPa NNW 40.7 mph /  65.5 km/h 40.7 mph /  65.5 km/h 65 % 0.0 in /  0 mm 371.0 W/m2 CLR
10:48 7.2 °F /  -13.8 °C 0.8 °F /  -17.3 °C 1018.5 in /  34486.4 hPa NNW 44.4 mph /  71.5 km/h 44.4 mph /  71.5 km/h 64 % 0.0 in /  0 mm 381.0 W/m2 CLR
10:53 7.8 °F /  -13.4 °C 1.4 °F /  -17 °C 1018.5 in /  34486.4 hPa NNW 42.6 mph /  68.6 km/h 42.6 mph /  68.6 km/h 64 % 0.0 in /  0 mm 394.0 W/m2 CLR
10:58 7.8 °F /  -13.4 °C 1.2 °F /  -17.1 °C 1018.5 in /  34486.4 hPa North 44.4 mph /  71.5 km/h 44.4 mph /  71.5 km/h 63 % 0.0 in /  0 mm 408.0 W/m2 CLR
11:03 7.8 °F /  -13.4 °C 1.2 °F /  -17.1 °C 1018.5 in /  34486.4 hPa NNW 53.7 mph /  86.4 km/h 53.7 mph /  86.4 km/h 63 % 0.0 in /  0 mm 390.0 W/m2 CLR
11:08 7.8 °F /  -13.4 °C 1.2 °F /  -17.1 °C 1018.5 in /  34486.4 hPa NNW 40.7 mph /  65.5 km/h 40.7 mph /  65.5 km/h 63 % 0.0 in /  0 mm 390.0 W/m2 CLR
11:13 7.8 °F /  -13.4 °C 1.2 °F /  -17.1 °C 1018.5 in /  34486.4 hPa NNW 40.7 mph /  65.5 km/h 40.7 mph /  65.5 km/h 63 % 0.0 in /  0 mm 432.0 W/m2 CLR
11:18 7.8 °F /  -13.4 °C 1.2 °F /  -17.1 °C 1018.5 in /  34486.4 hPa North 51.8 mph /  83.4 km/h 51.8 mph /  83.4 km/h 63 % 0.0 in /  0 mm 445.0 W/m2 CLR
11:23 7.8 °F /  -13.4 °C 0.9 °F /  -17.3 °C 1018.5 in /  34486.4 hPa NNW 48.1 mph /  77.4 km/h 48.1 mph /  77.4 km/h 62 % 0.0 in /  0 mm 452.0 W/m2 CLR
11:28 8.3 °F /  -13.2 °C 1.4 °F /  -17 °C 1018.5 in /  34486.4 hPa NNW 44.4 mph /  71.5 km/h 44.4 mph /  71.5 km/h 62 % 0.0 in /  0 mm 462.0 W/m2 CLR
11:33 8.3 °F /  -13.2 °C 1.2 °F /  -17.1 °C 1018.5 in /  34486.4 hPa NW 42.6 mph /  68.6 km/h 42.6 mph /  68.6 km/h 61 % 0.0 in /  0 mm 434.0 W/m2 CLR
11:38 8.3 °F /  -13.2 °C 1.2 °F /  -17.1 °C 1018.5 in /  34486.4 hPa NNW 27.4 mph /  44.1 km/h 27.4 mph /  44.1 km/h 61 % 0.0 in /  0 mm 439.0 W/m2 CLR
11:43 8.3 °F /  -13.2 °C 1.4 °F /  -17 °C 1018.8 in /  34496.6 hPa NNW 37.0 mph /  59.5 km/h 37.0 mph /  59.5 km/h 62 % 0.0 in /  0 mm 188.0 W/m2 CLR
11:48 7.8 °F /  -13.4 °C 0.7 °F /  -17.4 °C 1018.8 in /  34496.6 hPa NW 29.6 mph /  47.6 km/h 29.6 mph /  47.6 km/h 61 % 0.0 in /  0 mm 172.0 W/m2 CLR
11:53 7.8 °F /  -13.4 °C 0.7 °F /  -17.4 °C 1018.8 in /  34496.6 hPa NNW 33.3 mph /  53.6 km/h 33.3 mph /  53.6 km/h 61 % 0.0 in /  0 mm 188.0 W/m2 CLR
11:58 7.8 °F /  -13.4 °C 0.5 °F /  -17.5 °C 1018.5 in /  34486.4 hPa NW 37.0 mph /  59.5 km/h 37.0 mph /  59.5 km/h 60 % 0.0 in /  0 mm 176.0 W/m2 CLR
12:03 7.8 °F /  -13.4 °C 0.7 °F /  -17.4 °C 1018.5 in /  34486.4 hPa NW 46.3 mph /  74.5 km/h 46.3 mph /  74.5 km/h 61 % 0.0 in /  0 mm 172.0 W/m2 CLR
12:08 7.8 °F /  -13.4 °C 0.9 °F /  -17.3 °C 1018.8 in /  34496.6 hPa NW 31.5 mph /  50.7 km/h 31.5 mph /  50.7 km/h 62 % 0.0 in /  0 mm 181.0 W/m2 CLR
12:13 7.8 °F /  -13.4 °C 0.9 °F /  -17.3 °C 1018.8 in /  34496.6 hPa NNW 37.0 mph /  59.5 km/h 37.0 mph /  59.5 km/h 62 % 0.0 in /  0 mm 169.0 W/m2 CLR
12:18 7.8 °F /  -13.4 °C 0.7 °F /  -17.4 °C 1018.8 in /  34496.6 hPa NW 40.7 mph /  65.5 km/h 40.7 mph /  65.5 km/h 61 % 0.0 in /  0 mm 155.0 W/m2 CLR
12:23 7.8 °F /  -13.4 °C 0.5 °F /  -17.5 °C 1018.8 in /  34496.6 hPa NNW 33.3 mph /  53.6 km/h 33.3 mph /  53.6 km/h 60 % 0.0 in /  0 mm 192.0 W/m2 CLR
12:28 8.3 °F /  -13.2 °C 1.0 °F /  -17.2 °C 1018.5 in /  34486.4 hPa NW 33.3 mph /  53.6 km/h 33.3 mph /  53.6 km/h 60 % 0.0 in /  0 mm 250.0 W/m2 CLR
12:33 8.3 °F /  -13.2 °C 1.2 °F /  -17.1 °C 1018.5 in /  34486.4 hPa NNW 32.2 mph /  51.8 km/h 32.2 mph /  51.8 km/h 61 % 0.0 in /  0 mm 311.0 W/m2 CLR
12:38 8.9 °F /  -12.8 °C 1.3 °F /  -17.1 °C 1018.5 in /  34486.4 hPa NW 40.7 mph /  65.5 km/h 40.7 mph /  65.5 km/h 59 % 0.0 in /  0 mm 473.0 W/m2 CLR
12:43 10.0 °F /  -12.2 °C 2.1 °F /  -16.6 °C 1018.5 in /  34486.4 hPa NNW 46.3 mph /  74.5 km/h 46.3 mph /  74.5 km/h 58 % 0.0 in /  0 mm 807.0 W/m2 CLR
12:48 10.6 °F /  -11.9 °C 2.1 °F /  -16.6 °C 1018.5 in /  34486.4 hPa NNW 42.6 mph /  68.6 km/h 42.6 mph /  68.6 km/h 56 % 0.0 in /  0 mm 791.0 W/m2 CLR
12:53 10.0 °F /  -12.2 °C 1.9 °F /  -16.7 °C 1018.5 in /  34486.4 hPa NNW 25.7 mph /  41.4 km/h 25.7 mph /  41.4 km/h 57 % 0.0 in /  0 mm 367.0 W/m2 CLR
12:58 10.0 °F /  -12.2 °C 1.6 °F /  -16.9 °C 1018.5 in /  34486.4 hPa NNW 42.6 mph /  68.6 km/h 42.6 mph /  68.6 km/h 56 % 0.0 in /  0 mm 534.0 W/m2 CLR
13:03 10.6 °F /  -11.9 °C 1.6 °F /  -16.9 °C 1018.2 in /  34476.3 hPa North 44.4 mph /  71.5 km/h 44.4 mph /  71.5 km/h 54 % 0.0 in /  0 mm 429.0 W/m2 CLR
13:08 10.6 °F /  -11.9 °C 1.9 °F /  -16.7 °C 1018.2 in /  34476.3 hPa North 37.0 mph /  59.5 km/h 37.0 mph /  59.5 km/h 55 % 0.0 in /  0 mm 415.0 W/m2 CLR
13:13 10.6 °F /  -11.9 °C 1.9 °F /  -16.7 °C 1018.2 in /  34476.3 hPa NNW 48.3 mph /  77.7 km/h 48.3 mph /  77.7 km/h 55 % 0.0 in /  0 mm 346.0 W/m2 CLR
13:18 10.0 °F /  -12.2 °C 1.6 °F /  -16.9 °C 1018.2 in /  34476.3 hPa NNW 35.2 mph /  56.6 km/h 35.2 mph /  56.6 km/h 56 % 0.0 in /  0 mm 297.0 W/m2 CLR
13:23 9.4 °F /  -12.6 °C 1.3 °F /  -17.1 °C 1018.2 in /  34476.3 hPa NW 44.4 mph /  71.5 km/h 44.4 mph /  71.5 km/h 57 % 0.0 in /  0 mm 320.0 W/m2 CLR
13:28 9.4 °F /  -12.6 °C 1.3 °F /  -17.1 °C 1018.2 in /  34476.3 hPa NNW 37.0 mph /  59.5 km/h 37.0 mph /  59.5 km/h 57 % 0.0 in /  0 mm 313.0 W/m2 CLR
13:33 9.4 °F /  -12.6 °C 1.6 °F /  -16.9 °C 1017.8 in /  34462.7 hPa NNW 35.2 mph /  56.6 km/h 35.2 mph /  56.6 km/h 58 % 0.0 in /  0 mm 294.0 W/m2 CLR
13:38 9.4 °F /  -12.6 °C 1.6 °F /  -16.9 °C 1017.8 in /  34462.7 hPa North 37.0 mph /  59.5 km/h 37.0 mph /  59.5 km/h 58 % 0.0 in /  0 mm 330.0 W/m2 CLR
13:43 9.4 °F /  -12.6 °C 1.1 °F /  -17.2 °C 1017.5 in /  34452.6 hPa NNW 42.6 mph /  68.6 km/h 42.6 mph /  68.6 km/h 56 % 0.0 in /  0 mm 301.0 W/m2 CLR
13:48 9.4 °F /  -12.6 °C 1.3 °F /  -17.1 °C 1017.2 in /  34442.4 hPa North 31.5 mph /  50.7 km/h 31.5 mph /  50.7 km/h 57 % 0.0 in /  0 mm 306.0 W/m2 CLR
13:53 9.4 °F /  -12.6 °C 0.8 °F /  -17.3 °C 1017.2 in /  34442.4 hPa NW 38.9 mph /  62.6 km/h 38.9 mph /  62.6 km/h 55 % 0.0 in /  0 mm 323.0 W/m2 CLR
13:58 9.4 °F /  -12.6 °C 1.1 °F /  -17.2 °C 1017.2 in /  34442.4 hPa NNW 33.3 mph /  53.6 km/h 33.3 mph /  53.6 km/h 56 % 0.0 in /  0 mm 308.0 W/m2 CLR
14:03 10.0 °F /  -12.2 °C 1.1 °F /  -17.2 °C 1017.2 in /  34442.4 hPa NNW 44.4 mph /  71.5 km/h 44.4 mph /  71.5 km/h 54 % 0.0 in /  0 mm 355.0 W/m2 CLR
14:08 10.0 °F /  -12.2 °C 0.8 °F /  -17.3 °C 1016.8 in /  34428.8 hPa NW 42.6 mph /  68.6 km/h 42.6 mph /  68.6 km/h 53 % 0.0 in /  0 mm 376.0 W/m2 CLR
14:13 10.0 °F /  -12.2 °C 0.6 °F /  -17.4 °C 1016.8 in /  34428.8 hPa North 40.7 mph /  65.5 km/h 40.7 mph /  65.5 km/h 52 % 0.0 in /  0 mm 373.0 W/m2 CLR
14:19 10.0 °F /  -12.2 °C 0.8 °F /  -17.3 °C 1016.5 in /  34418.7 hPa NNW 51.8 mph /  83.4 km/h 51.8 mph /  83.4 km/h 53 % 0.0 in /  0 mm 568.0 W/m2 CLR
14:24 10.6 °F /  -11.9 °C 1.1 °F /  -17.2 °C 1016.5 in /  34418.7 hPa North 50.0 mph /  80.5 km/h 50.0 mph /  80.5 km/h 52 % 0.0 in /  0 mm 543.0 W/m2 CLR
14:29 10.6 °F /  -11.9 °C 1.1 °F /  -17.2 °C 1016.5 in /  34418.7 hPa NW 44.4 mph /  71.5 km/h 44.4 mph /  71.5 km/h 52 % 0.0 in /  0 mm 492.0 W/m2 CLR
14:34 10.6 °F /  -11.9 °C 0.8 °F /  -17.3 °C 1016.5 in /  34418.7 hPa NNW 45.1 mph /  72.6 km/h 45.1 mph /  72.6 km/h 51 % 0.0 in /  0 mm 540.0 W/m2 CLR
14:39 10.6 °F /  -11.9 °C 0.6 °F /  -17.4 °C 1016.5 in /  34418.7 hPa North 38.9 mph /  62.6 km/h 38.9 mph /  62.6 km/h 50 % 0.0 in /  0 mm 543.0 W/m2 CLR
14:44 10.6 °F /  -11.9 °C 0.8 °F /  -17.3 °C 1016.5 in /  34418.7 hPa North 42.6 mph /  68.6 km/h 42.6 mph /  68.6 km/h 51 % 0.0 in /  0 mm 540.0 W/m2 CLR
14:49 11.1 °F /  -11.6 °C 1.6 °F /  -16.9 °C 1016.1 in /  34405.1 hPa NW 33.3 mph /  53.6 km/h 33.3 mph /  53.6 km/h 52 % 0.0 in /  0 mm 522.0 W/m2 CLR
14:54 11.1 °F /  -11.6 °C 1.3 °F /  -17.1 °C 1016.1 in /  34405.1 hPa NNW 37.0 mph /  59.5 km/h 37.0 mph /  59.5 km/h 51 % 0.0 in /  0 mm 496.0 W/m2 CLR
14:59 11.1 °F /  -11.6 °C 1.6 °F /  -16.9 °C 1016.1 in /  34405.1 hPa NNW 37.0 mph /  59.5 km/h 37.0 mph /  59.5 km/h 52 % 0.0 in /  0 mm 483.0 W/m2 CLR
15:04 10.6 °F /  -11.9 °C 0.8 °F /  -17.3 °C 1016.1 in /  34405.1 hPa North 35.2 mph /  56.6 km/h 35.2 mph /  56.6 km/h 51 % 0.0 in /  0 mm 473.0 W/m2 CLR
15:09 11.1 °F /  -11.6 °C 1.6 °F /  -16.9 °C 1016.1 in /  34405.1 hPa NNW 29.0 mph /  46.7 km/h 29.0 mph /  46.7 km/h 52 % 0.0 in /  0 mm 469.0 W/m2 CLR
15:14 11.1 °F /  -11.6 °C 1.6 °F /  -16.9 °C 1016.1 in /  34405.1 hPa NW 29.0 mph /  46.7 km/h 29.0 mph /  46.7 km/h 52 % 0.0 in /  0 mm 459.0 W/m2 CLR
15:19 11.7 °F /  -11.3 °C 1.8 °F /  -16.8 °C 1016.1 in /  34405.1 hPa North 31.5 mph /  50.7 km/h 31.5 mph /  50.7 km/h 51 % 0.0 in /  0 mm 418.0 W/m2 CLR
15:24 11.1 °F /  -11.6 °C 1.1 °F /  -17.2 °C 1016.1 in /  34405.1 hPa NNW 27.4 mph /  44.1 km/h 27.4 mph /  44.1 km/h 50 % 0.0 in /  0 mm 401.0 W/m2 CLR
15:29 11.1 °F /  -11.6 °C 1.1 °F /  -17.2 °C 1016.1 in /  34405.1 hPa North 38.9 mph /  62.6 km/h 38.9 mph /  62.6 km/h 50 % 0.0 in /  0 mm 294.0 W/m2 CLR
15:34 11.1 °F /  -11.6 °C 1.3 °F /  -17.1 °C 1016.1 in /  34405.1 hPa NNW 40.7 mph /  65.5 km/h 40.7 mph /  65.5 km/h 51 % 0.0 in /  0 mm 294.0 W/m2 CLR
15:39 11.1 °F /  -11.6 °C 1.3 °F /  -17.1 °C 1016.1 in /  34405.1 hPa NNW 27.8 mph /  44.7 km/h 27.8 mph /  44.7 km/h 51 % 0.0 in /  0 mm 178.0 W/m2 CLR
15:44 10.6 °F /  -11.9 °C 0.8 °F /  -17.3 °C 1016.1 in /  34405.1 hPa NNW 33.3 mph /  53.6 km/h 33.3 mph /  53.6 km/h 51 % 0.0 in /  0 mm 220.0 W/m2 CLR
15:49 10.6 °F /  -11.9 °C 0.8 °F /  -17.3 °C 1016.1 in /  34405.1 hPa North 22.2 mph /  35.7 km/h 22.2 mph /  35.7 km/h 51 % 0.0 in /  0 mm 186.0 W/m2 CLR
15:54 10.6 °F /  -11.9 °C 0.8 °F /  -17.3 °C 1016.1 in /  34405.1 hPa NNW 29.6 mph /  47.6 km/h 29.6 mph /  47.6 km/h 51 % 0.0 in /  0 mm 179.0 W/m2 CLR
15:59 10.6 °F /  -11.9 °C 0.6 °F /  -17.4 °C 1015.8 in /  34395 hPa NW 29.6 mph /  47.6 km/h 29.6 mph /  47.6 km/h 50 % 0.0 in /  0 mm 155.0 W/m2 CLR
16:04 10.6 °F /  -11.9 °C 0.6 °F /  -17.4 °C 1015.8 in /  34395 hPa NW 20.4 mph /  32.8 km/h 20.4 mph /  32.8 km/h 50 % 0.0 in /  0 mm 141.0 W/m2 CLR
16:09 10.6 °F /  -11.9 °C 0.3 °F /  -17.6 °C 1015.8 in /  34395 hPa NNW 27.8 mph /  44.7 km/h 27.8 mph /  44.7 km/h 49 % 0.0 in /  0 mm 153.0 W/m2 CLR
16:14 10.6 °F /  -11.9 °C 0.8 °F /  -17.3 °C 1015.5 in /  34384.8 hPa NNW 35.2 mph /  56.6 km/h 35.2 mph /  56.6 km/h 51 % 0.0 in /  0 mm 167.0 W/m2 CLR
16:19 10.6 °F /  -11.9 °C 0.6 °F /  -17.4 °C 1015.5 in /  34384.8 hPa North 35.4 mph /  57 km/h 35.4 mph /  57 km/h 50 % 0.0 in /  0 mm 185.0 W/m2 CLR
16:24 10.6 °F /  -11.9 °C 0.8 °F /  -17.3 °C 1015.5 in /  34384.8 hPa NNW 27.8 mph /  44.7 km/h 27.8 mph /  44.7 km/h 51 % 0.0 in /  0 mm 121.0 W/m2 CLR
16:29 10.6 °F /  -11.9 °C 0.6 °F /  -17.4 °C 1015.5 in /  34384.8 hPa NW 31.5 mph /  50.7 km/h 31.5 mph /  50.7 km/h 50 % 0.0 in /  0 mm 144.0 W/m2 CLR
16:34 10.6 °F /  -11.9 °C 0.6 °F /  -17.4 °C 1015.5 in /  34384.8 hPa NNW 24.1 mph /  38.8 km/h 24.1 mph /  38.8 km/h 50 % 0.0 in /  0 mm 151.0 W/m2 CLR
16:39 10.6 °F /  -11.9 °C 0.8 °F /  -17.3 °C 1015.5 in /  34384.8 hPa North 24.1 mph /  38.8 km/h 24.1 mph /  38.8 km/h 51 % 0.0 in /  0 mm 111.0 W/m2 CLR
16:44 10.6 °F /  -11.9 °C 0.8 °F /  -17.3 °C 1015.5 in /  34384.8 hPa WNW 16.7 mph /  26.9 km/h 16.7 mph /  26.9 km/h 51 % 0.0 in /  0 mm 174.0 W/m2 CLR
16:49 10.6 °F /  -11.9 °C 0.6 °F /  -17.4 °C 1015.5 in /  34384.8 hPa NW 24.1 mph /  38.8 km/h 24.1 mph /  38.8 km/h 50 % 0.0 in /  0 mm 260.0 W/m2 CLR
16:54 10.6 °F /  -11.9 °C 0.6 °F /  -17.4 °C 1015.5 in /  34384.8 hPa NW 31.5 mph /  50.7 km/h 31.5 mph /  50.7 km/h 50 % 0.0 in /  0 mm 174.0 W/m2 CLR
16:59 10.6 °F /  -11.9 °C 0.8 °F /  -17.3 °C 1015.5 in /  34384.8 hPa West 27.8 mph /  44.7 km/h 27.8 mph /  44.7 km/h 51 % 0.0 in /  0 mm 193.0 W/m2 CLR
17:04 10.6 °F /  -11.9 °C 0.6 °F /  -17.4 °C 1015.5 in /  34384.8 hPa NNW 27.8 mph /  44.7 km/h 27.8 mph /  44.7 km/h 50 % 0.0 in /  0 mm 91.0 W/m2 CLR
17:09 10.0 °F /  -12.2 °C 0.3 °F /  -17.6 °C 1015.5 in /  34384.8 hPa NW 35.2 mph /  56.6 km/h 35.2 mph /  56.6 km/h 51 % 0.0 in /  0 mm 134.0 W/m2 FEW
17:14 10.6 °F /  -11.9 °C 1.1 °F /  -17.2 °C 1015.5 in /  34384.8 hPa NW 25.9 mph /  41.7 km/h 25.9 mph /  41.7 km/h 52 % 0.0 in /  0 mm 70.0 W/m2 CLR
17:19 10.0 °F /  -12.2 °C 0.3 °F /  -17.6 °C 1015.5 in /  34384.8 hPa NW 31.5 mph /  50.7 km/h 31.5 mph /  50.7 km/h 51 % 0.0 in /  0 mm 58.0 W/m2 SCT
17:24 10.0 °F /  -12.2 °C 0.3 °F /  -17.6 °C 1015.5 in /  34384.8 hPa NW 37.0 mph /  59.5 km/h 37.0 mph /  59.5 km/h 51 % 0.0 in /  0 mm 32.0 W/m2 BKN
17:29 10.0 °F /  -12.2 °C 0.6 °F /  -17.4 °C 1015.1 in /  34371.3 hPa NW 22.2 mph /  35.7 km/h 22.2 mph /  35.7 km/h 52 % 0.0 in /  0 mm 16.0 W/m2 BKN
17:34 10.0 °F /  -12.2 °C 0.6 °F /  -17.4 °C 1015.1 in /  34371.3 hPa NW 31.5 mph /  50.7 km/h 31.5 mph /  50.7 km/h 52 % 0.0 in /  0 mm 23.0 W/m2 BKN
17:39 9.4 °F /  -12.6 °C 0.1 °F /  -17.7 °C 1015.1 in /  34371.3 hPa NW 20.4 mph /  32.8 km/h 20.4 mph /  32.8 km/h 52 % 0.0 in /  0 mm 37.0 W/m2 BKN
17:44 9.4 °F /  -12.6 °C 0.3 °F /  -17.6 °C 1015.1 in /  34371.3 hPa NNW 25.9 mph /  41.7 km/h 25.9 mph /  41.7 km/h 53 % 0.0 in /  0 mm 35.0 W/m2 BKN
17:49 9.4 °F /  -12.6 °C 0.1 °F /  -17.7 °C 1015.1 in /  34371.3 hPa NW 18.5 mph /  29.8 km/h 18.5 mph /  29.8 km/h 52 % 0.0 in /  0 mm 30.0 W/m2 BKN
17:54 9.4 °F /  -12.6 °C 0.3 °F /  -17.6 °C 1015.1 in /  34371.3 hPa NW 20.4 mph /  32.8 km/h 20.4 mph /  32.8 km/h 53 % 0.0 in /  0 mm 18.0 W/m2 BKN
17:59 9.4 °F /  -12.6 °C 0.3 °F /  -17.6 °C 1015.1 in /  34371.3 hPa NW 20.4 mph /  32.8 km/h 20.4 mph /  32.8 km/h 53 % 0.0 in /  0 mm 14.0 W/m2 BKN
18:04 9.4 °F /  -12.6 °C 0.3 °F /  -17.6 °C 1015.1 in /  34371.3 hPa NW 22.2 mph /  35.7 km/h 22.2 mph /  35.7 km/h 53 % 0.0 in /  0 mm 11.0 W/m2 BKN
18:09 9.4 °F /  -12.6 °C 0.3 °F /  -17.6 °C 1015.1 in /  34371.3 hPa NW 22.2 mph /  35.7 km/h 22.2 mph /  35.7 km/h 53 % 0.0 in /  0 mm 5.0 W/m2 OVC
18:14 9.4 °F /  -12.6 °C 0.3 °F /  -17.6 °C 1015.1 in /  34371.3 hPa WNW 14.8 mph /  23.8 km/h 14.8 mph /  23.8 km/h 53 % 0.0 in /  0 mm 0.0 W/m2 OVC
18:19 9.4 °F /  -12.6 °C 0.3 °F /  -17.6 °C 1015.1 in /  34371.3 hPa WNW 13.0 mph /  20.9 km/h 13.0 mph /  20.9 km/h 53 % 0.0 in /  0 mm 0.0 W/m2 OVC
18:24 9.4 °F /  -12.6 °C 0.3 °F /  -17.6 °C 1015.1 in /  34371.3 hPa WNW 18.5 mph /  29.8 km/h 18.5 mph /  29.8 km/h 53 % 0.0 in /  0 mm 0.0 W/m2 OVC
18:29 9.4 °F /  -12.6 °C 0.6 °F /  -17.4 °C 1015.1 in /  34371.3 hPa NW 14.8 mph /  23.8 km/h 14.8 mph /  23.8 km/h 54 % 0.0 in /  0 mm 0.0 W/m2 CLR
18:34 8.9 °F /  -12.8 °C 0.1 °F /  -17.7 °C 1015.1 in /  34371.3 hPa NW 16.7 mph /  26.9 km/h 16.7 mph /  26.9 km/h 54 % 0.0 in /  0 mm 0.0 W/m2 CLR
18:39 8.9 °F /  -12.8 °C 0.1 °F /  -17.7 °C 1015.1 in /  34371.3 hPa NW 13.0 mph /  20.9 km/h 13.0 mph /  20.9 km/h 54 % 0.0 in /  0 mm 0.0 W/m2 CLR
18:44 8.9 °F /  -12.8 °C 0.3 °F /  -17.6 °C 1015.1 in /  34371.3 hPa NW 16.7 mph /  26.9 km/h 16.7 mph /  26.9 km/h 55 % 0.0 in /  0 mm 0.0 W/m2 CLR
18:49 8.9 °F /  -12.8 °C 0.3 °F /  -17.6 °C 1015.1 in /  34371.3 hPa NW 18.5 mph /  29.8 km/h 18.5 mph /  29.8 km/h 55 % 0.0 in /  0 mm 0.0 W/m2 CLR
18:54 8.9 °F /  -12.8 °C 0.3 °F /  -17.6 °C 1015.1 in /  34371.3 hPa NNW 19.3 mph /  31.1 km/h 19.3 mph /  31.1 km/h 55 % 0.0 in /  0 mm 0.0 W/m2 CLR
18:59 8.9 °F /  -12.8 °C 0.3 °F /  -17.6 °C 1015.1 in /  34371.3 hPa NNW 16.7 mph /  26.9 km/h 16.7 mph /  26.9 km/h 55 % 0.0 in /  0 mm 0.0 W/m2 CLR
19:04 9.4 °F /  -12.6 °C 1.1 °F /  -17.2 °C 1015.1 in /  34371.3 hPa NW 18.5 mph /  29.8 km/h 18.5 mph /  29.8 km/h 56 % 0.0 in /  0 mm 0.0 W/m2 CLR
19:09 9.4 °F /  -12.6 °C 1.1 °F /  -17.2 °C 1015.1 in /  34371.3 hPa NW 20.4 mph /  32.8 km/h 20.4 mph /  32.8 km/h 56 % 0.0 in /  0 mm 0.0 W/m2 CLR
19:14 9.4 °F /  -12.6 °C 1.3 °F /  -17.1 °C 1015.1 in /  34371.3 hPa NNW 17.7 mph /  28.5 km/h 17.7 mph /  28.5 km/h 57 % 0.0 in /  0 mm 0.0 W/m2 CLR
19:19 9.4 °F /  -12.6 °C 1.3 °F /  -17.1 °C 1015.1 in /  34371.3 hPa North 20.4 mph /  32.8 km/h 20.4 mph /  32.8 km/h 57 % 0.0 in /  0 mm 0.0 W/m2 CLR
19:24 9.4 °F /  -12.6 °C 1.6 °F /  -16.9 °C 1015.1 in /  34371.3 hPa North 24.1 mph /  38.8 km/h 24.1 mph /  38.8 km/h 58 % 0.0 in /  0 mm 0.0 W/m2 CLR
19:29 9.4 °F /  -12.6 °C 1.3 °F /  -17.1 °C 1015.1 in /  34371.3 hPa NW 25.9 mph /  41.7 km/h 25.9 mph /  41.7 km/h 57 % 0.0 in /  0 mm 0.0 W/m2 CLR
19:34 9.4 °F /  -12.6 °C 1.1 °F /  -17.2 °C 1015.1 in /  34371.3 hPa NNW 24.1 mph /  38.8 km/h 24.1 mph /  38.8 km/h 56 % 0.0 in /  0 mm 0.0 W/m2 CLR
19:39 9.4 °F /  -12.6 °C 1.1 °F /  -17.2 °C 1015.1 in /  34371.3 hPa NNW 22.2 mph /  35.7 km/h 22.2 mph /  35.7 km/h 56 % 0.0 in /  0 mm 0.0 W/m2 CLR
19:44 9.4 °F /  -12.6 °C 1.3 °F /  -17.1 °C 1015.1 in /  34371.3 hPa NNW 24.1 mph /  38.8 km/h 24.1 mph /  38.8 km/h 57 % 0.0 in /  0 mm 0.0 W/m2 CLR
19:49 9.4 °F /  -12.6 °C 1.6 °F /  -16.9 °C 1015.1 in /  34371.3 hPa NW 16.7 mph /  26.9 km/h 16.7 mph /  26.9 km/h 58 % 0.0 in /  0 mm 0.0 W/m2 CLR
19:54 9.4 °F /  -12.6 °C 1.3 °F /  -17.1 °C 1015.1 in /  34371.3 hPa NNW 14.8 mph /  23.8 km/h 14.8 mph /  23.8 km/h 57 % 0.0 in /  0 mm 0.0 W/m2 CLR
19:59 8.9 °F /  -12.8 °C 1.3 °F /  -17.1 °C 1015.1 in /  34371.3 hPa North 18.5 mph /  29.8 km/h 18.5 mph /  29.8 km/h 59 % 0.0 in /  0 mm 0.0 W/m2 CLR
20:05 8.9 °F /  -12.8 °C 1.3 °F /  -17.1 °C 1015.1 in /  34371.3 hPa NNW 22.2 mph /  35.7 km/h 22.2 mph /  35.7 km/h 59 % 0.0 in /  0 mm 0.0 W/m2 CLR
20:10 8.9 °F /  -12.8 °C 1.6 °F /  -16.9 °C 1015.1 in /  34371.3 hPa North 31.5 mph /  50.7 km/h 31.5 mph /  50.7 km/h 60 % 0.0 in /  0 mm 0.0 W/m2 CLR
20:15 8.9 °F /  -12.8 °C 1.8 °F /  -16.8 °C 1015.5 in /  34384.8 hPa NNW 24.1 mph /  38.8 km/h 24.1 mph /  38.8 km/h 61 % 0.0 in /  0 mm 0.0 W/m2 CLR
20:20 8.9 °F /  -12.8 °C 2.0 °F /  -16.7 °C 1015.5 in /  34384.8 hPa NW 25.9 mph /  41.7 km/h 25.9 mph /  41.7 km/h 62 % 0.0 in /  0 mm 0.0 W/m2 CLR
20:25 8.9 °F /  -12.8 °C 2.0 °F /  -16.7 °C 1015.1 in /  34371.3 hPa NNE 18.5 mph /  29.8 km/h 18.5 mph /  29.8 km/h 62 % 0.0 in /  0 mm 0.0 W/m2 CLR
20:30 8.3 °F /  -13.2 °C 1.7 °F /  -16.8 °C 1015.1 in /  34371.3 hPa NW 22.2 mph /  35.7 km/h 22.2 mph /  35.7 km/h 63 % 0.0 in /  0 mm 0.0 W/m2 CLR
20:35 8.3 °F /  -13.2 °C 1.7 °F /  -16.8 °C 1015.1 in /  34371.3 hPa NW 20.4 mph /  32.8 km/h 20.4 mph /  32.8 km/h 63 % 0.0 in /  0 mm 0.0 W/m2 CLR
20:40 8.3 °F /  -13.2 °C 1.7 °F /  -16.8 °C 1015.1 in /  34371.3 hPa NNW 22.2 mph /  35.7 km/h 22.2 mph /  35.7 km/h 63 % 0.0 in /  0 mm 0.0 W/m2 CLR
20:45 8.3 °F /  -13.2 °C 1.7 °F /  -16.8 °C 1015.1 in /  34371.3 hPa NW 12.9 mph /  20.8 km/h 12.9 mph /  20.8 km/h 63 % 0.0 in /  0 mm 0.0 W/m2 CLR
20:50 8.3 °F /  -13.2 °C 1.7 °F /  -16.8 °C 1015.5 in /  34384.8 hPa NW 18.5 mph /  29.8 km/h 18.5 mph /  29.8 km/h 63 % 0.0 in /  0 mm 0.0 W/m2 CLR
20:55 8.3 °F /  -13.2 °C 1.7 °F /  -16.8 °C 1015.1 in /  34371.3 hPa NW 16.7 mph /  26.9 km/h 16.7 mph /  26.9 km/h 63 % 0.0 in /  0 mm 0.0 W/m2 CLR
21:00 8.3 °F /  -13.2 °C 1.7 °F /  -16.8 °C 1015.1 in /  34371.3 hPa NW 14.8 mph /  23.8 km/h 14.8 mph /  23.8 km/h 63 % 0.0 in /  0 mm 0.0 W/m2 CLR
21:05 8.3 °F /  -13.2 °C 1.7 °F /  -16.8 °C 1015.5 in /  34384.8 hPa NW 14.8 mph /  23.8 km/h 14.8 mph /  23.8 km/h 63 % 0.0 in /  0 mm 0.0 W/m2 CLR
21:10 8.3 °F /  -13.2 °C 1.7 °F /  -16.8 °C 1015.1 in /  34371.3 hPa NW 18.5 mph /  29.8 km/h 18.5 mph /  29.8 km/h 63 % 0.0 in /  0 mm 0.0 W/m2 CLR
21:15 7.8 °F /  -13.4 °C 1.2 °F /  -17.1 °C 1015.1 in /  34371.3 hPa NNW 16.7 mph /  26.9 km/h 16.9 mph /  27.2 km/h 63 % 0.0 in /  0 mm 0.0 W/m2 CLR
21:20 7.8 °F /  -13.4 °C 1.2 °F /  -17.1 °C 1015.1 in /  34371.3 hPa NW 20.4 mph /  32.8 km/h 20.4 mph /  32.8 km/h 63 % 0.0 in /  0 mm 0.0 W/m2 CLR
21:25 7.8 °F /  -13.4 °C 1.2 °F /  -17.1 °C 1015.1 in /  34371.3 hPa NW 22.2 mph /  35.7 km/h 22.2 mph /  35.7 km/h 63 % 0.0 in /  0 mm 0.0 W/m2 CLR
21:30 7.8 °F /  -13.4 °C 1.2 °F /  -17.1 °C 1015.1 in /  34371.3 hPa NW 27.8 mph /  44.7 km/h 27.8 mph /  44.7 km/h 63 % 0.0 in /  0 mm 0.0 W/m2 CLR
21:35 8.3 °F /  -13.2 °C 1.4 °F /  -17 °C 1014.8 in /  34361.1 hPa NW 22.2 mph /  35.7 km/h 22.2 mph /  35.7 km/h 62 % 0.0 in /  0 mm 0.0 W/m2 CLR
21:40 7.8 °F /  -13.4 °C 1.2 °F /  -17.1 °C 1014.8 in /  34361.1 hPa NNW 29.6 mph /  47.6 km/h 29.6 mph /  47.6 km/h 63 % 0.0 in /  0 mm 0.0 W/m2 CLR
21:45 7.8 °F /  -13.4 °C 1.2 °F /  -17.1 °C 1014.8 in /  34361.1 hPa NW 20.4 mph /  32.8 km/h 20.4 mph /  32.8 km/h 63 % 0.0 in /  0 mm 0.0 W/m2 CLR
21:50 7.8 °F /  -13.4 °C 1.2 °F /  -17.1 °C 1014.8 in /  34361.1 hPa NW 17.7 mph /  28.5 km/h 17.7 mph /  28.5 km/h 63 % 0.0 in /  0 mm 0.0 W/m2 CLR
21:55 7.8 °F /  -13.4 °C 1.2 °F /  -17.1 °C 1014.8 in /  34361.1 hPa WNW 18.5 mph /  29.8 km/h 18.5 mph /  29.8 km/h 63 % 0.0 in /  0 mm 0.0 W/m2 CLR
22:00 7.8 °F /  -13.4 °C 1.2 °F /  -17.1 °C 1014.8 in /  34361.1 hPa WNW 22.2 mph /  35.7 km/h 22.2 mph /  35.7 km/h 63 % 0.0 in /  0 mm 0.0 W/m2 CLR
22:05 7.8 °F /  -13.4 °C 1.2 °F /  -17.1 °C 1014.8 in /  34361.1 hPa WNW 20.4 mph /  32.8 km/h 20.4 mph /  32.8 km/h 63 % 0.0 in /  0 mm 0.0 W/m2 CLR
22:10 7.2 °F /  -13.8 °C 0.7 °F /  -17.4 °C 1014.8 in /  34361.1 hPa WNW 18.5 mph /  29.8 km/h 18.5 mph /  29.8 km/h 63 % 0.0 in /  0 mm 0.0 W/m2 CLR
22:15 7.2 °F /  -13.8 °C 0.8 °F /  -17.3 °C 1014.8 in /  34361.1 hPa NW 20.4 mph /  32.8 km/h 20.4 mph /  32.8 km/h 64 % 0.0 in /  0 mm 0.0 W/m2 CLR
22:20 6.7 °F /  -14.1 °C 0.3 °F /  -17.6 °C 1014.8 in /  34361.1 hPa WNW 14.5 mph /  23.3 km/h 14.5 mph /  23.3 km/h 64 % 0.0 in /  0 mm 0.0 W/m2 CLR
22:25 6.7 °F /  -14.1 °C 0.6 °F /  -17.4 °C 1014.8 in /  34361.1 hPa WNW 25.9 mph /  41.7 km/h 25.9 mph /  41.7 km/h 65 % 0.0 in /  0 mm 0.0 W/m2 CLR
22:30 6.7 °F /  -14.1 °C 0.6 °F /  -17.4 °C 1014.8 in /  34361.1 hPa WNW 13.0 mph /  20.9 km/h 13.0 mph /  20.9 km/h 65 % 0.0 in /  0 mm 0.0 W/m2 CLR
22:35 6.1 °F /  -14.4 °C 0.0 °F /  -17.8 °C 1014.8 in /  34361.1 hPa NW 9.7 mph /  15.6 km/h 9.7 mph /  15.6 km/h 65 % 0.0 in /  0 mm 0.0 W/m2 CLR
22:40 6.1 °F /  -14.4 °C 0.0 °F /  -17.8 °C 1014.8 in /  34361.1 hPa WNW 9.3 mph /  15 km/h 9.3 mph /  15 km/h 65 % 0.0 in /  0 mm 0.0 W/m2 CLR
22:45 5.6 °F /  -14.7 °C -0.3 °F /  -17.9 °C 1014.8 in /  34361.1 hPa NW 9.7 mph /  15.6 km/h 9.7 mph /  15.6 km/h 66 % 0.0 in /  0 mm 0.0 W/m2 CLR
22:50 5.6 °F /  -14.7 °C -0.3 °F /  -17.9 °C 1014.8 in /  34361.1 hPa WNW 14.8 mph /  23.8 km/h 14.8 mph /  23.8 km/h 66 % 0.0 in /  0 mm 0.0 W/m2 CLR
22:55 5.6 °F /  -14.7 °C -0.3 °F /  -17.9 °C 1014.8 in /  34361.1 hPa WNW 16.7 mph /  26.9 km/h 16.7 mph /  26.9 km/h 66 % 0.0 in /  0 mm 0.0 W/m2 CLR
23:00 5.6 °F /  -14.7 °C -0.1 °F /  -17.8 °C 1014.8 in /  34361.1 hPa WNW 14.8 mph /  23.8 km/h 14.8 mph /  23.8 km/h 67 % 0.0 in /  0 mm 0.0 W/m2 CLR
23:05 5.6 °F /  -14.7 °C -0.1 °F /  -17.8 °C 1014.8 in /  34361.1 hPa WNW 16.7 mph /  26.9 km/h 16.7 mph /  26.9 km/h 67 % 0.0 in /  0 mm 0.0 W/m2 CLR
23:10 5.6 °F /  -14.7 °C -0.1 °F /  -17.8 °C 1014.8 in /  34361.1 hPa WNW 18.5 mph /  29.8 km/h 18.5 mph /  29.8 km/h 67 % 0.0 in /  0 mm 0.0 W/m2 CLR
23:15 5.6 °F /  -14.7 °C -0.1 °F /  -17.8 °C 1014.8 in /  34361.1 hPa NW 18.5 mph /  29.8 km/h 18.5 mph /  29.8 km/h 67 % 0.0 in /  0 mm 0.0 W/m2 CLR
23:20 5.6 °F /  -14.7 °C -0.1 °F /  -17.8 °C 1014.8 in /  34361.1 hPa NW 22.2 mph /  35.7 km/h 22.2 mph /  35.7 km/h 67 % 0.0 in /  0 mm 0.0 W/m2 CLR
23:25 5.6 °F /  -14.7 °C -0.1 °F /  -17.8 °C 1014.8 in /  34361.1 hPa NW 18.5 mph /  29.8 km/h 18.5 mph /  29.8 km/h 67 % 0.0 in /  0 mm 0.0 W/m2 CLR
23:30 6.1 °F /  -14.4 °C 0.4 °F /  -17.6 °C 1014.8 in /  34361.1 hPa NW 19.3 mph /  31.1 km/h 19.3 mph /  31.1 km/h 67 % 0.0 in /  0 mm 0.0 W/m2 CLR
23:35 6.7 °F /  -14.1 °C 0.9 °F /  -17.3 °C 1014.8 in /  34361.1 hPa NNW 22.2 mph /  35.7 km/h 22.2 mph /  35.7 km/h 67 % 0.0 in /  0 mm 0.0 W/m2 CLR
23:40 6.7 °F /  -14.1 °C 0.9 °F /  -17.3 °C 1015.1 in /  34371.3 hPa NW 22.2 mph /  35.7 km/h 22.2 mph /  35.7 km/h 67 % 0.0 in /  0 mm 0.0 W/m2 CLR
23:45 6.7 °F /  -14.1 °C 1.2 °F /  -17.1 °C 1015.1 in /  34371.3 hPa NNW 22.5 mph /  36.2 km/h 22.5 mph /  36.2 km/h 68 % 0.0 in /  0 mm 0.0 W/m2 CLR
23:50 6.7 °F /  -14.1 °C 1.2 °F /  -17.1 °C 1015.1 in /  34371.3 hPa NW 24.1 mph /  38.8 km/h 24.1 mph /  38.8 km/h 68 % 0.0 in /  0 mm 0.0 W/m2 CLR
23:55 6.7 °F /  -14.1 °C 1.4 °F /  -17 °C 1015.1 in /  34371.3 hPa NNW 24.1 mph /  38.8 km/h 24.1 mph /  38.8 km/h 69 % 0.0 in /  0 mm 0.0 W/m2 CLR
Lo Temps de Massalio
Compliments of Weather Underground - 1.25 mb